Time;durP1;ratioP1;P1;durP2;ratioP2;P2;SDS_P1;SDS_P2;PMS_P1;PMS_P2;Temp;Humidity;BMP_temperature;BMP_pressure;BME280_temperature;BME280_humidity;BME280_pressure;Samples;Min_cycle;Max_cycle;Signal;HPM_P1;HPM_P2
2021/01/12 00:01:06;;;;;;;23.98;14.80;;;6.50;99.90;;;;;;4178001;28;20025;-78
2021/01/12 00:03:07;;;;;;;23.08;16.13;;;6.50;99.90;;;;;;4160007;28;20131;-78
2021/01/12 00:05:08;;;;;;;18.45;13.35;;;6.50;99.90;;;;;;4177916;28;20538;-79
2021/01/12 00:07:11;;;;;;;18.77;13.20;;;6.50;99.90;;;;;;4160000;28;20396;-79
2021/01/12 00:09:11;;;;;;;20.73;13.63;;;6.50;99.90;;;;;;4160664;28;20087;-78
2021/01/12 00:11:19;;;;;;;16.83;12.43;;;6.50;99.90;;;;;;4179117;28;20420;-79
2021/01/12 00:13:21;;;;;;;19.38;10.82;;;6.50;99.90;;;;;;4179370;28;20053;-77
2021/01/12 00:15:22;;;;;;;13.48;11.25;;;6.50;99.90;;;;;;4161646;28;20038;-78
2021/01/12 00:17:23;;;;;;;26.40;13.23;;;6.50;99.90;;;;;;4178887;28;20115;-78
2021/01/12 00:19:23;;;;;;;21.15;13.43;;;6.50;99.90;;;;;;4179097;28;20510;-79
2021/01/12 00:21:27;;;;;;;18.10;13.38;;;6.50;99.90;;;;;;4179331;28;20384;-79
2021/01/12 00:23:28;;;;;;;19.08;14.35;;;6.50;99.90;;;;;;4179493;28;20033;-80
2021/01/12 00:25:28;;;;;;;17.80;12.02;;;6.50;99.90;;;;;;4179246;28;20356;-80
2021/01/12 00:27:29;;;;;;;21.13;13.07;;;6.50;99.90;;;;;;4179285;28;20044;-80
2021/01/12 00:29:32;;;;;;;17.00;12.68;;;6.50;99.90;;;;;;4168203;28;20408;-80
2021/01/12 00:31:37;;;;;;;16.02;12.57;;;6.50;99.90;;;;;;4178982;28;20021;-80
2021/01/12 00:33:38;;;;;;;19.45;12.77;;;6.50;99.90;;;;;;4179431;28;20029;-79
2021/01/12 00:35:39;;;;;;;18.73;11.95;;;6.50;99.90;;;;;;4161500;28;20096;-79
2021/01/12 00:37:40;;;;;;;16.77;11.50;;;6.50;99.90;;;;;;4179079;28;20025;-79
2021/01/12 00:39:41;;;;;;;16.20;12.43;;;6.50;99.90;;;;;;4179922;28;20075;-80
2021/01/12 00:41:45;;;;;;;24.00;13.00;;;6.50;99.90;;;;;;4182514;28;20037;-80
2021/01/12 00:43:46;;;;;;;14.57;11.50;;;6.50;99.90;;;;;;4182111;28;20472;-80
2021/01/12 00:45:46;;;;;;;16.48;11.23;;;6.50;99.90;;;;;;4181224;28;20112;-80
2021/01/12 00:47:47;;;;;;;15.77;11.85;;;6.50;99.90;;;;;;4164210;28;20120;-80
2021/01/12 00:49:48;;;;;;;16.27;11.55;;;6.50;99.90;;;;;;4180871;28;20025;-80
2021/01/12 00:51:49;;;;;;;15.90;12.07;;;6.50;99.90;;;;;;4181488;28;20495;-80
2021/01/12 00:53:50;;;;;;;22.55;13.95;;;6.50;99.90;;;;;;4181628;28;20480;-80
2021/01/12 00:55:50;;;;;;;13.82;11.20;;;6.50;99.90;;;;;;4162903;28;20038;-79
2021/01/12 00:57:51;;;;;;;16.00;11.02;;;6.50;99.90;;;;;;4162617;28;20025;-79
2021/01/12 00:59:51;;;;;;;18.52;11.63;;;6.50;99.90;;;;;;4180489;28;20392;-79
2021/01/12 01:01:52;;;;;;;15.23;10.80;;;6.50;99.90;;;;;;4162394;28;20029;-80
2021/01/12 01:03:53;;;;;;;15.57;11.57;;;6.60;99.90;;;;;;4180238;28;20451;-79
2021/01/12 01:05:53;;;;;;;14.32;12.10;;;6.60;99.90;;;;;;4162657;28;20032;-80
2021/01/12 01:07:54;;;;;;;19.00;12.65;;;6.60;99.90;;;;;;4162141;28;20046;-78
2021/01/12 01:09:55;;;;;;;16.55;12.30;;;6.60;99.90;;;;;;4180136;28;20036;-79
2021/01/12 01:11:55;;;;;;;15.82;12.50;;;6.50;99.90;;;;;;4180340;28;20373;-79
2021/01/12 01:13:59;;;;;;;15.35;11.02;;;6.50;99.90;;;;;;4179982;28;20124;-79
2021/01/12 01:16:00;;;;;;;13.32;8.95;;;6.50;99.90;;;;;;4172078;28;20388;-79
2021/01/12 01:18:01;;;;;;;14.15;10.75;;;6.60;99.90;;;;;;4171679;28;20124;-80
2021/01/12 01:20:03;;;;;;;16.83;11.90;;;6.50;99.90;;;;;;4158806;28;20056;-80
2021/01/12 01:22:04;;;;;;;14.38;10.30;;;6.60;99.90;;;;;;4160886;28;20120;-78
2021/01/12 01:24:08;;;;;;;14.93;9.43;;;6.60;99.90;;;;;;4179461;28;20059;-79
2021/01/12 01:26:09;;;;;;;13.65;10.20;;;6.60;99.90;;;;;;4179976;28;20109;-78
2021/01/12 01:28:10;;;;;;;13.27;9.48;;;6.60;99.90;;;;;;4161907;28;20529;-79
2021/01/12 01:30:11;;;;;;;14.55;9.85;;;6.60;99.90;;;;;;4179752;28;20476;-79
2021/01/12 01:32:12;;;;;;;14.05;9.52;;;6.60;99.90;;;;;;4179957;28;20376;-79
2021/01/12 01:34:12;;;;;;;15.18;10.00;;;6.60;99.90;;;;;;4162227;28;20040;-79
2021/01/12 01:36:14;;;;;;;15.10;9.85;;;6.60;99.90;;;;;;4180116;28;20033;-79
2021/01/12 01:38:15;;;;;;;14.68;9.63;;;6.60;99.90;;;;;;4181155;28;20033;-80
2021/01/12 01:40:19;;;;;;;13.27;8.93;;;6.60;99.90;;;;;;4163541;28;20021;-79
2021/01/12 01:42:20;;;;;;;13.88;9.57;;;6.60;99.90;;;;;;4181429;28;20021;-80
2021/01/12 01:44:20;;;;;;;15.27;8.38;;;6.60;99.90;;;;;;4180558;28;21572;-80
2021/01/12 01:46:21;;;;;;;12.75;8.18;;;6.60;99.90;;;;;;4181226;28;20235;-80
2021/01/12 01:48:22;;;;;;;15.85;8.90;;;6.70;99.90;;;;;;4180985;28;20099;-79
2021/01/12 01:50:23;;;;;;;10.13;6.78;;;6.60;99.90;;;;;;4181109;28;20021;-79
2021/01/12 01:52:25;;;;;;;11.23;7.22;;;6.70;99.90;;;;;;4181288;28;20049;-80
2021/01/12 01:54:26;;;;;;;9.35;6.95;;;6.70;99.90;;;;;;4176611;28;20041;-80
2021/01/12 01:56:27;;;;;;;13.50;7.70;;;6.70;99.90;;;;;;4181349;28;20060;-79
2021/01/12 01:58:29;;;;;;;16.88;7.47;;;6.70;99.90;;;;;;4180976;28;20053;-80
2021/01/12 02:00:30;;;;;;;14.43;8.93;;;6.70;99.90;;;;;;4181002;28;20057;-79
2021/01/12 02:02:53;;;;;;;16.23;8.80;;;6.70;99.90;;;;;;4180735;28;20066;-80
2021/01/12 02:05:00;;;;;;;14.90;9.60;;;6.70;99.90;;;;;;4180817;28;20028;-78
2021/01/12 02:07:03;;;;;;;17.85;8.77;;;6.70;99.90;;;;;;4162497;28;20032;-77
2021/01/12 02:09:57;;;;;;;17.15;8.68;;;6.70;99.90;;;;;;4176036;28;20037;-78
2021/01/12 02:12:01;;;;;;;18.35;9.85;;;6.80;99.90;;;;;;4106373;28;20035;-79
2021/01/12 02:14:03;;;;;;;;;;;6.80;99.90;;;;;;4113933;28;20035;-78
2021/01/12 02:16:04;;;;;;;8.65;5.80;;;6.80;99.90;;;;;;4113626;28;19910;-78
2021/01/12 02:18:07;;;;;;;17.25;9.48;;;6.80;99.90;;;;;;4176962;28;20066;-79
2021/01/12 02:20:08;;;;;;;15.37;8.67;;;6.80;99.90;;;;;;4163000;28;20465;-78
2021/01/12 02:22:18;;;;;;;14.75;8.40;;;6.80;99.90;;;;;;4162580;28;20037;-78
2021/01/12 02:24:20;;;;;;;15.88;8.82;;;6.90;99.90;;;;;;4162648;28;20029;-78
2021/01/12 02:26:21;;;;;;;13.73;8.45;;;6.80;99.90;;;;;;4162673;28;20056;-78
2021/01/12 02:28:22;;;;;;;19.83;8.77;;;6.90;99.90;;;;;;4162836;28;20424;-78
2021/01/12 02:30:22;;;;;;;14.45;7.82;;;6.90;99.90;;;;;;4180275;28;20029;-79
2021/01/12 02:32:23;;;;;;;15.10;8.60;;;6.90;99.90;;;;;;4180428;28;20029;-79
2021/01/12 02:34:26;;;;;;;14.55;10.13;;;6.90;99.90;;;;;;4180320;28;20119;-78
2021/01/12 02:36:29;;;;;;;13.27;8.82;;;6.90;99.90;;;;;;4175520;28;20100;-78
2021/01/12 02:38:30;;;;;;;14.65;8.18;;;6.90;99.90;;;;;;4168237;28;20409;-79
2021/01/12 02:40:31;;;;;;;16.10;9.23;;;6.90;99.90;;;;;;4180436;28;20040;-78
2021/01/12 02:42:31;;;;;;;17.48;8.50;;;7.00;99.90;;;;;;4180216;28;20476;-78
2021/01/12 02:44:32;;;;;;;17.08;9.48;;;7.00;99.90;;;;;;4162154;28;20037;-78
2021/01/12 02:46:33;;;;;;;15.23;8.20;;;7.00;99.90;;;;;;4179865;28;20088;-78
2021/01/12 02:48:33;;;;;;;15.48;8.35;;;7.00;99.90;;;;;;4162469;28;20521;-78
2021/01/12 02:50:34;;;;;;;12.27;7.22;;;7.00;99.90;;;;;;4180261;28;20140;-78
2021/01/12 02:52:35;;;;;;;14.20;7.18;;;7.00;99.90;;;;;;4179979;28;20044;-79
2021/01/12 02:54:35;;;;;;;17.58;8.10;;;7.00;99.90;;;;;;4180087;28;20033;-79
2021/01/12 02:56:36;;;;;;;12.38;7.85;;;7.00;99.90;;;;;;4180081;28;20407;-79
2021/01/12 02:58:36;;;;;;;11.90;6.80;;;7.10;99.90;;;;;;4179901;28;20021;-79
2021/01/12 03:00:37;;;;;;;11.82;6.28;;;7.10;99.90;;;;;;4180163;28;20037;-79
2021/01/12 03:02:38;;;;;;;12.52;6.78;;;7.10;99.90;;;;;;4161560;28;20088;-78
2021/01/12 03:04:38;;;;;;;16.00;7.78;;;7.10;99.90;;;;;;4180317;28;20044;-79
2021/01/12 03:06:39;;;;;;;15.73;6.65;;;7.10;99.90;;;;;;4162258;28;20521;-80
2021/01/12 03:08:40;;;;;;;12.85;6.35;;;7.10;99.90;;;;;;4179680;28;20131;-80
2021/01/12 03:10:41;;;;;;;14.77;7.45;;;7.00;99.90;;;;;;4162099;28;20397;-79
2021/01/12 03:12:42;;;;;;;13.02;6.13;;;7.00;99.90;;;;;;4178377;28;20115;-79
2021/01/12 03:14:43;;;;;;;12.85;6.13;;;7.00;99.90;;;;;;4160674;28;20579;-80
2021/01/12 03:16:43;;;;;;;9.77;6.25;;;7.10;99.90;;;;;;4178153;28;20037;-80
2021/01/12 03:18:44;;;;;;;10.15;5.45;;;7.10;99.90;;;;;;4177841;28;20106;-79
2021/01/12 03:20:45;;;;;;;6.80;5.13;;;7.10;99.90;;;;;;4178294;28;20044;-80
2021/01/12 03:22:45;;;;;;;8.57;5.65;;;7.10;99.90;;;;;;4178316;28;20037;-79
2021/01/12 03:24:46;;;;;;;13.25;6.53;;;7.10;99.90;;;;;;4178220;28;20469;-79
2021/01/12 03:26:47;;;;;;;8.82;5.07;;;7.10;99.90;;;;;;4178197;28;20037;-78
2021/01/12 03:28:48;;;;;;;11.55;5.35;;;7.10;99.90;;;;;;4178040;28;20033;-79
2021/01/12 03:30:49;;;;;;;7.03;4.70;;;7.10;99.90;;;;;;4160117;28;20115;-80
2021/01/12 03:32:52;;;;;;;10.15;4.45;;;7.10;99.90;;;;;;4160539;28;20033;-79
2021/01/12 03:34:52;;;;;;;9.45;4.93;;;7.10;99.90;;;;;;4178066;28;20055;-80
2021/01/12 03:36:53;;;;;;;7.75;5.50;;;7.10;99.90;;;;;;4178125;28;20033;-79
2021/01/12 03:38:54;;;;;;;6.65;4.35;;;7.10;99.90;;;;;;4177983;28;20360;-79
2021/01/12 03:40:54;;;;;;;9.02;4.60;;;7.10;99.90;;;;;;4179350;28;20064;-78
2021/01/12 03:42:55;;;;;;;7.70;4.95;;;7.20;99.90;;;;;;4179582;28;20028;-79
2021/01/12 03:44:56;;;;;;;7.53;4.50;;;7.20;99.90;;;;;;4179406;28;20553;-78
2021/01/12 03:46:56;;;;;;;7.95;4.30;;;7.20;99.90;;;;;;4161733;28;20025;-78
2021/01/12 03:48:57;;;;;;;9.32;3.70;;;7.20;99.90;;;;;;4161795;28;20041;-78
2021/01/12 03:50:58;;;;;;;5.97;3.10;;;7.20;99.90;;;;;;4161798;28;20152;-78
2021/01/12 03:52:58;;;;;;;6.32;3.42;;;7.20;99.90;;;;;;4179036;28;20037;-78
2021/01/12 03:54:59;;;;;;;3.88;2.63;;;7.20;99.90;;;;;;4172638;28;20496;-79
2021/01/12 03:57:00;;;;;;;5.22;2.97;;;7.10;99.90;;;;;;4179366;28;20033;-79
2021/01/12 03:59:01;;;;;;;4.50;2.50;;;7.20;99.90;;;;;;4161492;28;20028;-79
2021/01/12 04:01:01;;;;;;;6.70;3.10;;;7.20;99.90;;;;;;4179481;28;20033;-79
2021/01/12 04:03:02;;;;;;;2.88;2.58;;;7.10;99.90;;;;;;4178952;28;20120;-78
2021/01/12 04:05:03;;;;;;;2.75;2.17;;;7.10;99.90;;;;;;4179528;28;20032;-78
2021/01/12 04:07:04;;;;;;;2.60;2.40;;;7.20;99.90;;;;;;4179233;28;20055;-78
2021/01/12 04:09:04;;;;;;;2.63;2.30;;;7.10;99.90;;;;;;4161366;28;20537;-78
2021/01/12 04:11:05;;;;;;;5.50;2.60;;;7.10;99.90;;;;;;4161581;28;20049;-78
2021/01/12 04:13:06;;;;;;;2.58;2.38;;;7.10;99.90;;;;;;4179028;28;20024;-79
2021/01/12 04:15:07;;;;;;;5.85;2.60;;;7.20;99.90;;;;;;4180857;28;20025;-78
2021/01/12 04:17:07;;;;;;;13.82;5.25;;;7.20;99.90;;;;;;4182171;28;20701;-78
2021/01/12 04:19:10;;;;;;;12.70;5.75;;;7.20;99.90;;;;;;4182702;28;20021;-78
2021/01/12 04:21:10;;;;;;;6.10;3.80;;;7.30;99.90;;;;;;4182708;28;20029;-78
2021/01/12 04:23:11;;;;;;;7.97;5.28;;;7.30;99.90;;;;;;4182563;28;20445;-78
2021/01/12 04:25:12;;;;;;;6.40;3.88;;;7.30;99.90;;;;;;4182437;28;20025;-78
2021/01/12 04:27:12;;;;;;;5.97;4.32;;;7.30;99.90;;;;;;4164714;28;20381;-78
2021/01/12 04:29:13;;;;;;;6.13;4.35;;;7.30;99.90;;;;;;4182083;28;20029;-78
2021/01/12 04:31:13;;;;;;;5.72;3.65;;;7.30;99.90;;;;;;4181970;28;20033;-78
2021/01/12 04:33:14;;;;;;;5.45;4.15;;;7.30;99.90;;;;;;4182112;28;20056;-78
2021/01/12 04:35:14;;;;;;;8.13;3.88;;;7.30;99.90;;;;;;4164260;28;20026;-78
2021/01/12 04:37:15;;;;;;;7.75;3.83;;;7.30;99.90;;;;;;4181961;28;20033;-78
2021/01/12 04:39:16;;;;;;;6.20;3.85;;;7.30;99.90;;;;;;4180845;28;20040;-78
2021/01/12 04:41:16;;;;;;;3.08;2.88;;;7.30;99.90;;;;;;4180616;28;20029;-78
2021/01/12 04:43:17;;;;;;;5.80;3.50;;;7.30;99.90;;;;;;4180740;28;20090;-78
2021/01/12 04:45:18;;;;;;;4.85;3.40;;;7.30;99.90;;;;;;4180573;28;20116;-78
2021/01/12 04:47:18;;;;;;;3.65;2.85;;;7.30;99.90;;;;;;4180626;28;20029;-78
2021/01/12 04:49:19;;;;;;;3.20;2.83;;;7.30;99.90;;;;;;4179147;28;20401;-77
2021/01/12 04:51:22;;;;;;;4.35;3.63;;;7.30;99.90;;;;;;4167813;28;20033;-77
2021/01/12 04:53:23;;;;;;;;;;;7.30;99.90;;;;;;4166706;28;20044;-77
2021/01/12 04:55:23;;;;;;;4.30;3.30;;;7.30;99.90;;;;;;4166440;28;19917;-78
2021/01/12 04:57:24;;;;;;;7.38;3.28;;;7.30;99.90;;;;;;4158026;28;20037;-78
2021/01/12 04:59:29;;;;;;;4.30;2.63;;;7.40;99.90;;;;;;4181818;28;20036;-78
2021/01/12 05:01:30;;;;;;;1.35;1.35;;;7.40;99.90;;;;;;4181276;28;20041;-77
2021/01/12 05:03:32;;;;;;;1.40;1.40;;;7.40;99.90;;;;;;4176578;28;20039;-77
2021/01/12 05:05:37;;;;;;;3.15;1.65;;;7.40;99.90;;;;;;4173114;28;20064;-77
2021/01/12 05:07:38;;;;;;;1.20;1.20;;;7.30;99.90;;;;;;4166435;28;20052;-77
2021/01/12 05:09:39;;;;;;;1.55;1.55;;;7.30;99.90;;;;;;4148580;28;20080;-78
2021/01/12 05:11:42;;;;;;;1.30;1.30;;;7.40;99.90;;;;;;4161962;28;20034;-78
2021/01/12 05:13:44;;;;;;;1.75;1.65;;;7.40;99.90;;;;;;4147868;28;20551;-77
2021/01/12 05:15:47;;;;;;;1.65;1.65;;;7.30;99.90;;;;;;4165118;28;20479;-78
2021/01/12 05:17:49;;;;;;;2.30;2.15;;;7.30;99.90;;;;;;4156360;28;20034;-78
2021/01/12 05:19:56;;;;;;;1.20;1.20;;;7.30;99.90;;;;;;4178206;28;20520;-78
2021/01/12 05:21:59;;;;;;;1.58;1.58;;;7.30;99.90;;;;;;4166219;28;20064;-77
2021/01/12 05:24:05;;;;;;;16.05;1.92;;;7.40;99.90;;;;;;4146540;28;20110;-78
2021/01/12 05:26:08;;;;;;;1.52;1.52;;;7.40;99.90;;;;;;4144595;28;20053;-78
2021/01/12 05:28:10;;;;;;;1.30;1.30;;;7.40;99.90;;;;;;4165544;28;20037;-78
2021/01/12 05:30:11;;;;;;;3.60;3.30;;;7.40;99.90;;;;;;4164560;28;20036;-78
2021/01/12 05:32:12;;;;;;;1.35;1.35;;;7.40;99.90;;;;;;4167456;28;20025;-77
2021/01/12 05:34:16;;;;;;;1.40;1.40;;;7.40;99.90;;;;;;4165589;28;20049;-77
2021/01/12 05:36:19;;;;;;;2.05;1.95;;;7.40;99.90;;;;;;4165678;28;20017;-76
2021/01/12 05:38:29;;;;;;;1.92;1.85;;;7.40;99.90;;;;;;4168612;28;20036;-78
2021/01/12 05:40:32;;;;;;;2.08;2.00;;;7.40;99.90;;;;;;4169632;28;20029;-78
2021/01/12 05:42:37;;;;;;;1.33;1.33;;;7.50;99.90;;;;;;4166880;28;20037;-77
2021/01/12 05:44:40;;;;;;;1.27;1.27;;;7.60;99.90;;;;;;4167898;28;20033;-77
2021/01/12 05:46:44;;;;;;;1.60;1.60;;;7.60;99.90;;;;;;4165413;28;20040;-77
2021/01/12 05:48:46;;;;;;;1.38;1.35;;;7.60;99.90;;;;;;4152752;28;20033;-78
2021/01/12 05:50:49;;;;;;;1.20;1.20;;;7.60;99.90;;;;;;4169966;28;20060;-78
2021/01/12 05:53:13;;;;;;;1.50;1.50;;;7.60;99.90;;;;;;4165262;28;20041;-77
2021/01/12 05:55:16;;;;;;;1.92;1.85;;;7.60;99.90;;;;;;4175476;28;20033;-77
2021/01/12 05:57:23;;;;;;;2.20;2.10;;;7.50;99.90;;;;;;4173684;28;20570;-78
2021/01/12 05:59:25;;;;;;;1.50;1.50;;;7.50;99.90;;;;;;4155157;28;20051;-78
2021/01/12 06:01:50;;;;;;;1.38;1.38;;;7.50;99.90;;;;;;4167313;28;20030;-78
2021/01/12 06:03:51;;;;;;;1.52;1.50;;;7.60;99.90;;;;;;4179246;28;20432;-79
2021/01/12 06:05:52;;;;;;;1.55;1.55;;;7.60;99.90;;;;;;4179359;28;20377;-77
2021/01/12 06:07:53;;;;;;;1.20;1.20;;;7.70;99.90;;;;;;4180902;28;20025;-77
2021/01/12 06:09:57;;;;;;;1.30;1.30;;;7.60;99.90;;;;;;4179161;28;20037;-79
2021/01/12 06:11:58;;;;;;;1.40;1.40;;;7.60;99.90;;;;;;4161479;28;20083;-78
2021/01/12 06:14:13;;;;;;;1.33;1.33;;;7.60;99.90;;;;;;4179587;28;20136;-78
2021/01/12 06:16:21;;;;;;;1.33;1.33;;;7.60;99.90;;;;;;4179159;28;20056;-78
2021/01/12 06:18:24;;;;;;;1.40;1.40;;;7.60;99.90;;;;;;4176841;28;20384;-78
2021/01/12 06:20:39;;;;;;;2.20;2.10;;;7.60;99.90;;;;;;4167321;28;20473;-78
2021/01/12 06:22:47;;;;;;;2.13;2.03;;;7.50;99.90;;;;;;4173733;28;20035;-79
2021/01/12 06:24:53;;;;;;;1.35;1.35;;;7.60;99.90;;;;;;4171966;28;20051;-78
2021/01/12 06:26:54;;;;;;;1.50;1.50;;;7.70;99.90;;;;;;4171053;28;20022;-77
2021/01/12 06:28:54;;;;;;;1.33;1.33;;;7.70;99.90;;;;;;4177723;28;20116;-78
2021/01/12 06:30:56;;;;;;;1.92;1.83;;;7.60;99.90;;;;;;4180386;28;20040;-78
2021/01/12 06:32:56;;;;;;;1.35;1.35;;;7.60;99.90;;;;;;4175245;28;20484;-78
2021/01/12 06:35:00;;;;;;;1.30;1.30;;;7.50;99.90;;;;;;4161934;28;20184;-78
2021/01/12 06:37:04;;;;;;;1.45;1.45;;;7.40;99.90;;;;;;4177653;28;20024;-78
2021/01/12 06:39:05;;;;;;;2.25;2.15;;;7.30;99.90;;;;;;4176899;28;20048;-78
2021/01/12 06:41:08;;;;;;;2.00;1.90;;;7.40;99.90;;;;;;4178087;28;20029;-77
2021/01/12 06:43:10;;;;;;;1.60;1.60;;;7.40;99.90;;;;;;4179248;28;20366;-79
2021/01/12 06:45:10;;;;;;;1.20;1.20;;;7.30;99.90;;;;;;4179211;28;20455;-78
2021/01/12 06:47:11;;;;;;;1.30;1.30;;;7.30;99.90;;;;;;4161496;28;20021;-79
2021/01/12 06:49:23;;;;;;;1.40;1.40;;;7.30;99.90;;;;;;4160441;28;20050;-78
2021/01/12 06:51:36;;;;;;;1.30;1.30;;;7.20;99.90;;;;;;4159121;28;20370;-79
2021/01/12 06:53:43;;;;;;;1.30;1.30;;;7.30;99.90;;;;;;4179229;28;20064;-79
2021/01/12 06:55:44;;;;;;;1.60;1.60;;;7.30;99.90;;;;;;4179369;28;20089;-79
2021/01/12 06:57:49;;;;;;;1.30;1.30;;;7.20;99.90;;;;;;4179347;28;20029;-78
2021/01/12 06:59:54;;;;;;;1.40;1.40;;;7.20;99.90;;;;;;4177488;28;20101;-79
2021/01/12 07:01:57;;;;;;;1.50;1.50;;;7.30;99.90;;;;;;4172356;28;20543;-79
2021/01/12 07:04:00;;;;;;;6.20;2.67;;;7.30;99.90;;;;;;4149468;28;20033;-78
2021/01/12 07:06:02;;;;;;;1.30;1.30;;;7.20;99.90;;;;;;4173593;28;20033;-78
2021/01/12 07:08:07;;;;;;;26.02;3.58;;;7.30;99.90;;;;;;4178879;28;20278;-77
2021/01/12 07:10:14;;;;;;;1.80;1.70;;;7.20;99.90;;;;;;4178051;28;20072;-80
2021/01/12 07:12:23;;;;;;;2.20;2.10;;;7.10;99.90;;;;;;4177761;28;20079;-79
2021/01/12 07:14:24;;;;;;;1.30;1.30;;;7.00;99.90;;;;;;4150299;28;20040;-79
2021/01/12 07:16:25;;;;;;;1.30;1.30;;;7.00;99.90;;;;;;4162691;28;20084;-79
2021/01/12 07:18:26;;;;;;;1.33;1.33;;;7.00;99.90;;;;;;4177929;28;20036;-79
2021/01/12 07:20:27;;;;;;;1.50;1.50;;;7.10;99.90;;;;;;4147823;28;20033;-80
2021/01/12 07:22:31;;;;;;;1.50;1.50;;;7.10;99.90;;;;;;4165160;28;20108;-79
2021/01/12 07:24:38;;;;;;;2.45;2.35;;;7.10;99.90;;;;;;4177567;28;20507;-79
2021/01/12 07:26:40;;;;;;;1.42;1.42;;;7.10;99.90;;;;;;4179026;28;20025;-79
2021/01/12 07:28:46;;;;;;;1.45;1.45;;;7.00;99.90;;;;;;4168442;28;20037;-79
2021/01/12 07:30:52;;;;;;;1.65;1.63;;;7.10;99.90;;;;;;4167606;28;20087;-79
2021/01/12 07:33:04;;;;;;;1.30;1.30;;;7.00;99.90;;;;;;4160580;28;20037;-79
2021/01/12 07:35:14;;;;;;;1.40;1.40;;;7.00;99.90;;;;;;4176864;28;20507;-79
2021/01/12 07:37:14;;;;;;;1.40;1.40;;;7.00;99.90;;;;;;4177487;28;20025;-79
2021/01/12 07:39:15;;;;;;;1.50;1.50;;;6.90;99.90;;;;;;4178862;28;20099;-79
2021/01/12 07:41:17;;;;;;;1.40;1.40;;;6.90;99.90;;;;;;4178936;28;20021;-79
2021/01/12 07:43:23;;;;;;;2.38;2.28;;;6.90;99.90;;;;;;4161083;28;20060;-79
2021/01/12 07:45:30;;;;;;;1.45;1.45;;;6.90;99.90;;;;;;4160064;28;20057;-80
2021/01/12 07:47:30;;;;;;;1.50;1.50;;;7.00;99.90;;;;;;4177656;28;20037;-79
2021/01/12 07:49:31;;;;;;;1.40;1.40;;;7.00;99.90;;;;;;4177837;28;20043;-77
2021/01/12 07:51:31;;;;;;;1.40;1.40;;;7.00;99.90;;;;;;4178020;28;20037;-78
2021/01/12 07:53:33;;;;;;;1.67;1.67;;;7.00;99.90;;;;;;4159824;28;20052;-78
2021/01/12 07:55:38;;;;;;;1.35;1.35;;;7.00;99.90;;;;;;4178679;28;20029;-79
2021/01/12 07:57:39;;;;;;;1.40;1.40;;;7.00;99.90;;;;;;4159724;28;20080;-80
2021/01/12 07:59:40;;;;;;;1.60;1.60;;;6.90;99.90;;;;;;4176859;28;20048;-79
2021/01/12 08:01:43;;;;;;;1.35;1.35;;;6.90;99.90;;;;;;4161047;28;20136;-80
2021/01/12 08:03:47;;;;;;;1.40;1.40;;;7.00;99.90;;;;;;4178073;28;20080;-79
2021/01/12 08:05:47;;;;;;;2.53;2.42;;;6.90;99.90;;;;;;4177173;28;20032;-78
2021/01/12 08:07:49;;;;;;;9.90;2.13;;;7.00;99.90;;;;;;4155051;28;20656;-78
2021/01/12 08:09:55;;;;;;;1.30;1.30;;;6.90;99.90;;;;;;4155075;28;20037;-78
2021/01/12 08:12:04;;;;;;;1.25;1.25;;;6.90;99.90;;;;;;4162794;28;20025;-78
2021/01/12 08:14:08;;;;;;;1.50;1.50;;;6.90;99.90;;;;;;4171667;28;20194;-78
2021/01/12 08:16:09;;;;;;;1.85;1.77;;;6.80;99.90;;;;;;4170972;28;20411;-78
2021/01/12 08:18:16;;;;;;;1.60;1.60;;;6.80;99.90;;;;;;4157668;28;20034;-77
2021/01/12 08:20:19;;;;;;;1.30;1.30;;;6.60;99.90;;;;;;4159823;28;20026;-78
2021/01/12 08:22:20;;;;;;;1.40;1.40;;;6.50;99.90;;;;;;4178234;28;20507;-78
2021/01/12 08:24:27;;;;;;;1.40;1.40;;;6.30;99.90;;;;;;4160782;28;20051;-78
2021/01/12 08:26:28;;;;;;;1.80;1.70;;;6.30;99.90;;;;;;4160786;28;20088;-78
2021/01/12 08:28:28;;;;;;;2.80;2.70;;;6.20;99.90;;;;;;4172501;28;20337;-79
2021/01/12 08:30:31;;;;;;;1.40;1.40;;;6.20;99.90;;;;;;4160755;28;20038;-79
2021/01/12 08:32:35;;;;;;;2.95;2.85;;;6.10;99.90;;;;;;4178100;28;20037;-79
2021/01/12 08:35:02;;;;;;;2.67;2.50;;;6.10;99.90;;;;;;4170957;28;20437;-78
2021/01/12 08:37:05;;;;;;;1.48;1.48;;;6.00;99.90;;;;;;4168121;28;20450;-78
2021/01/12 08:39:06;;;;;;;1.40;1.40;;;6.00;99.90;;;;;;4175851;28;20029;-78
2021/01/12 08:41:08;;;;;;;1.30;1.30;;;6.00;99.90;;;;;;4177756;28;20033;-79
2021/01/12 08:43:18;;;;;;;1.42;1.42;;;5.90;99.90;;;;;;4177638;28;20033;-78
2021/01/12 08:45:19;;;;;;;1.50;1.50;;;5.80;99.90;;;;;;4160661;28;20068;-79
2021/01/12 08:47:27;;;;;;;1.30;1.30;;;5.80;99.90;;;;;;4178162;28;20025;-79
2021/01/12 08:49:31;;;;;;;1.42;1.42;;;5.80;99.90;;;;;;4177932;28;20033;-79
2021/01/12 08:51:33;;;;;;;1.50;1.50;;;5.90;99.90;;;;;;4177651;28;20097;-79
2021/01/12 08:53:33;;;;;;;1.30;1.30;;;5.90;99.90;;;;;;4177020;28;20044;-79
2021/01/12 08:55:34;;;;;;;1.50;1.50;;;5.90;99.90;;;;;;4157406;28;20065;-79
2021/01/12 08:57:35;;;;;;;1.50;1.50;;;5.90;99.90;;;;;;4178411;28;20029;-79
2021/01/12 08:59:36;;;;;;;1.40;1.40;;;5.90;99.90;;;;;;4178045;28;20047;-79
2021/01/12 09:01:38;;;;;;;1.40;1.40;;;6.00;99.90;;;;;;4178506;28;20119;-80
2021/01/12 09:03:42;;;;;;;1.50;1.50;;;5.90;99.90;;;;;;4180556;28;21024;-80
2021/01/12 09:05:43;;;;;;;;;;;5.90;99.90;;;;;;4181673;28;20361;-80
2021/01/12 09:07:44;;;;;;;1.40;1.40;;;5.90;99.90;;;;;;4164010;28;19909;-79
2021/01/12 09:09:54;;;;;;;1.70;1.70;;;5.90;99.90;;;;;;4180997;28;20041;-80
2021/01/12 09:11:59;;;;;;;1.33;1.33;;;5.90;99.90;;;;;;4180986;28;20507;-81
2021/01/12 09:14:07;;;;;;;1.40;1.40;;;6.00;99.90;;;;;;4159618;28;20037;-80
2021/01/12 09:16:07;;;;;;;1.33;1.33;;;6.10;99.90;;;;;;4178689;28;20029;-79
2021/01/12 09:18:09;;;;;;;1.40;1.40;;;6.10;99.90;;;;;;4180314;28;20116;-79
2021/01/12 09:20:10;;;;;;;3.22;2.40;;;6.10;99.90;;;;;;4173177;28;20520;-79
2021/01/12 09:22:17;;;;;;;1.48;1.48;;;6.10;99.90;;;;;;4158878;28;20029;-79
2021/01/12 09:24:19;;;;;;;1.67;1.67;;;6.10;99.90;;;;;;4178323;28;21016;-80
2021/01/12 09:26:20;;;;;;;1.50;1.50;;;6.10;99.90;;;;;;4178423;28;20017;-79
2021/01/12 09:28:26;;;;;;;1.67;1.67;;;6.10;99.90;;;;;;4178591;28;20049;-80
2021/01/12 09:30:26;;;;;;;1.50;1.50;;;6.20;99.90;;;;;;4160384;28;20033;-78
2021/01/12 09:32:34;;;;;;;1.58;1.58;;;6.20;99.90;;;;;;4178340;28;20098;-78
2021/01/12 09:34:37;;;;;;;1.63;1.63;;;6.30;99.90;;;;;;4178114;28;20036;-79
2021/01/12 09:36:37;;;;;;;1.40;1.40;;;6.40;99.90;;;;;;4178827;28;20029;-78
2021/01/12 09:38:40;;;;;;;1.45;1.45;;;6.40;99.90;;;;;;4178357;28;20033;-79
2021/01/12 09:40:40;;;;;;;1.40;1.40;;;6.40;99.90;;;;;;4162329;28;20492;-78
2021/01/12 09:42:45;;;;;;;1.60;1.60;;;6.30;99.90;;;;;;4178824;28;20339;-79
2021/01/12 09:44:45;;;;;;;1.30;1.30;;;6.30;99.90;;;;;;4180063;28;20424;-79
2021/01/12 09:46:46;;;;;;;1.30;1.30;;;6.30;99.90;;;;;;4161217;28;20155;-78
2021/01/12 09:48:48;;;;;;;2.00;1.90;;;6.30;99.90;;;;;;4175352;28;20034;-79
2021/01/12 09:50:49;;;;;;;1.48;1.48;;;6.30;99.90;;;;;;4180247;28;20037;-78
2021/01/12 09:52:49;;;;;;;1.30;1.30;;;6.30;99.90;;;;;;4178486;28;20033;-80
2021/01/12 09:54:50;;;;;;;5.47;2.15;;;6.20;99.90;;;;;;4162295;28;20053;-80
2021/01/12 09:56:51;;;;;;;5.45;4.72;;;6.20;99.90;;;;;;4162002;28;20029;-78
2021/01/12 09:58:52;;;;;;;1.40;1.40;;;6.20;99.90;;;;;;4161917;28;20472;-79
2021/01/12 10:00:53;;;;;;;3.05;2.25;;;6.20;99.90;;;;;;4180119;28;20033;-79
2021/01/12 10:02:53;;;;;;;1.50;1.50;;;6.30;99.90;;;;;;4179490;28;20447;-79
2021/01/12 10:04:54;;;;;;;4.55;2.90;;;6.30;99.90;;;;;;4179618;28;20056;-79
2021/01/12 10:06:59;;;;;;;1.40;1.40;;;6.40;99.90;;;;;;4161552;28;20156;-80
2021/01/12 10:08:59;;;;;;;1.50;1.50;;;6.50;99.90;;;;;;4178744;28;20127;-79
2021/01/12 10:11:05;;;;;;;1.45;1.45;;;6.50;99.90;;;;;;4178596;28;20082;-79
2021/01/12 10:13:06;;;;;;;1.45;1.45;;;6.50;99.90;;;;;;4178641;28;20087;-79
2021/01/12 10:15:07;;;;;;;1.95;1.90;;;6.50;99.90;;;;;;4178828;28;20033;-80
2021/01/12 10:17:08;;;;;;;1.77;1.52;;;6.50;99.90;;;;;;4161595;28;20045;-79
2021/01/12 10:19:09;;;;;;;2.45;2.35;;;6.40;99.90;;;;;;4180275;28;20623;-79
2021/01/12 10:21:10;;;;;;;15.25;2.55;;;6.30;99.90;;;;;;4179840;28;20049;-78
2021/01/12 10:23:11;;;;;;;1.60;1.60;;;6.20;99.90;;;;;;4179701;28;20071;-78
2021/01/12 10:25:12;;;;;;;1.33;1.33;;;6.00;99.90;;;;;;4178355;28;20033;-78
2021/01/12 10:27:13;;;;;;;1.55;1.55;;;5.70;99.90;;;;;;4178820;28;20480;-78
2021/01/12 10:29:14;;;;;;;1.60;1.60;;;5.40;99.90;;;;;;4173235;28;20044;-78
2021/01/12 10:31:17;;;;;;;1.67;1.65;;;5.20;99.90;;;;;;4160531;28;20434;-78
2021/01/12 10:33:18;;;;;;;1.45;1.45;;;5.10;99.90;;;;;;4161774;28;20041;-78
2021/01/12 10:35:18;;;;;;;1.70;1.70;;;5.10;99.90;;;;;;4179755;28;20025;-78
2021/01/12 10:37:19;;;;;;;1.42;1.42;;;5.10;99.90;;;;;;4163251;28;20032;-78
2021/01/12 10:39:20;;;;;;;1.70;1.70;;;5.10;99.90;;;;;;4175620;28;20048;-79
2021/01/12 10:41:21;;;;;;;1.60;1.60;;;5.10;99.90;;;;;;4178577;28;20029;-78
2021/01/12 10:43:22;;;;;;;1.35;1.35;;;5.00;99.90;;;;;;4161905;28;20039;-78